sensor_id;sensor_type;location;lat;lon;timestamp;P1;durP1;ratioP1;P2;durP2;ratioP2
14890;SDS011;7537;48.014;11.590;2023-04-16T00:01:31;4.46;;;4.61;;
14890;SDS011;7537;48.014;11.590;2023-04-16T00:06:58;4.11;;;4.17;;
14890;SDS011;7537;48.014;11.590;2023-04-16T00:12:30;3.50;;;3.55;;
14890;SDS011;7537;48.014;11.590;2023-04-16T00:17:58;3.82;;;3.93;;
14890;SDS011;7537;48.014;11.590;2023-04-16T00:23:26;4.58;;;4.71;;
14890;SDS011;7537;48.014;11.590;2023-04-16T00:28:53;4.62;;;4.78;;
14890;SDS011;7537;48.014;11.590;2023-04-16T00:34:21;5.47;;;5.55;;
14890;SDS011;7537;48.014;11.590;2023-04-16T00:39:48;5.12;;;5.27;;
14890;SDS011;7537;48.014;11.590;2023-04-16T00:45:16;5.75;;;5.84;;
14890;SDS011;7537;48.014;11.590;2023-04-16T00:50:43;6.22;;;6.29;;
14890;SDS011;7537;48.014;11.590;2023-04-16T00:56:14;7.47;;;7.27;;
14890;SDS011;7537;48.014;11.590;2023-04-16T01:01:42;6.17;;;6.02;;
14890;SDS011;7537;48.014;11.590;2023-04-16T01:07:10;5.90;;;6.03;;
14890;SDS011;7537;48.014;11.590;2023-04-16T01:12:37;6.24;;;6.37;;
14890;SDS011;7537;48.014;11.590;2023-04-16T01:18:12;6.06;;;6.22;;
14890;SDS011;7537;48.014;11.590;2023-04-16T01:23:40;6.60;;;6.79;;
14890;SDS011;7537;48.014;11.590;2023-04-16T01:29:07;6.37;;;6.39;;
14890;SDS011;7537;48.014;11.590;2023-04-16T01:34:34;6.51;;;5.77;;
14890;SDS011;7537;48.014;11.590;2023-04-16T01:40:02;6.76;;;6.91;;
14890;SDS011;7537;48.014;11.590;2023-04-16T01:45:31;6.71;;;6.71;;
14890;SDS011;7537;48.014;11.590;2023-04-16T01:51:03;5.99;;;6.06;;
14890;SDS011;7537;48.014;11.590;2023-04-16T01:56:37;5.39;;;5.43;;
14890;SDS011;7537;48.014;11.590;2023-04-16T02:02:06;5.84;;;5.98;;
14890;SDS011;7537;48.014;11.590;2023-04-16T02:07:34;6.94;;;6.61;;
14890;SDS011;7537;48.014;11.590;2023-04-16T02:13:03;6.76;;;6.86;;
14890;SDS011;7537;48.014;11.590;2023-04-16T02:18:31;6.17;;;6.19;;
14890;SDS011;7537;48.014;11.590;2023-04-16T02:23:59;5.87;;;5.93;;
14890;SDS011;7537;48.014;11.590;2023-04-16T02:29:27;6.64;;;6.68;;
14890;SDS011;7537;48.014;11.590;2023-04-16T02:34:54;6.57;;;6.69;;
14890;SDS011;7537;48.014;11.590;2023-04-16T02:40:22;6.19;;;5.79;;
14890;SDS011;7537;48.014;11.590;2023-04-16T02:45:56;6.16;;;6.28;;
14890;SDS011;7537;48.014;11.590;2023-04-16T02:51:23;6.22;;;6.34;;
14890;SDS011;7537;48.014;11.590;2023-04-16T02:57:04;6.22;;;6.22;;
14890;SDS011;7537;48.014;11.590;2023-04-16T03:02:31;5.85;;;5.76;;
14890;SDS011;7537;48.014;11.590;2023-04-16T03:07:59;5.94;;;5.79;;
14890;SDS011;7537;48.014;11.590;2023-04-16T03:13:26;5.47;;;5.59;;
14890;SDS011;7537;48.014;11.590;2023-04-16T03:18:53;5.45;;;5.59;;
14890;SDS011;7537;48.014;11.590;2023-04-16T03:24:21;5.24;;;5.47;;
14890;SDS011;7537;48.014;11.590;2023-04-16T03:29:48;5.06;;;5.28;;
14890;SDS011;7537;48.014;11.590;2023-04-16T03:35:16;4.99;;;5.09;;
14890;SDS011;7537;48.014;11.590;2023-04-16T03:40:48;4.50;;;4.64;;
14890;SDS011;7537;48.014;11.590;2023-04-16T03:46:16;5.54;;;5.67;;
14890;SDS011;7537;48.014;11.590;2023-04-16T03:51:48;5.66;;;5.78;;
14890;SDS011;7537;48.014;11.590;2023-04-16T03:57:24;5.42;;;5.54;;
14890;SDS011;7537;48.014;11.590;2023-04-16T04:02:51;6.32;;;6.36;;
14890;SDS011;7537;48.014;11.590;2023-04-16T04:08:20;5.35;;;5.58;;
14890;SDS011;7537;48.014;11.590;2023-04-16T04:13:47;5.95;;;5.76;;
14890;SDS011;7537;48.014;11.590;2023-04-16T04:19:14;6.13;;;4.97;;
14890;SDS011;7537;48.014;11.590;2023-04-16T04:24:45;5.64;;;5.73;;
14890;SDS011;7537;48.014;11.590;2023-04-16T04:30:12;4.16;;;4.35;;
14890;SDS011;7537;48.014;11.590;2023-04-16T04:35:40;5.11;;;5.21;;
14890;SDS011;7537;48.014;11.590;2023-04-16T04:41:07;4.37;;;4.53;;
14890;SDS011;7537;48.014;11.590;2023-04-16T04:46:35;5.20;;;4.67;;
14890;SDS011;7537;48.014;11.590;2023-04-16T04:52:02;5.12;;;5.23;;
14890;SDS011;7537;48.014;11.590;2023-04-16T04:57:33;3.63;;;3.81;;
14890;SDS011;7537;48.014;11.590;2023-04-16T05:03:02;6.03;;;4.03;;
14890;SDS011;7537;48.014;11.590;2023-04-16T05:08:29;3.99;;;4.14;;
14890;SDS011;7537;48.014;11.590;2023-04-16T05:13:59;3.87;;;3.89;;
14890;SDS011;7537;48.014;11.590;2023-04-16T05:19:27;3.42;;;3.56;;
14890;SDS011;7537;48.014;11.590;2023-04-16T05:24:54;3.36;;;3.48;;
14890;SDS011;7537;48.014;11.590;2023-04-16T05:30:22;2.83;;;3.04;;
14890;SDS011;7537;48.014;11.590;2023-04-16T05:35:55;2.54;;;2.72;;
14890;SDS011;7537;48.014;11.590;2023-04-16T05:41:23;2.77;;;2.98;;
14890;SDS011;7537;48.014;11.590;2023-04-16T05:46:52;2.64;;;2.84;;
14890;SDS011;7537;48.014;11.590;2023-04-16T05:52:20;1.98;;;2.16;;
14890;SDS011;7537;48.014;11.590;2023-04-16T05:57:51;2.08;;;2.23;;
14890;SDS011;7537;48.014;11.590;2023-04-16T06:03:18;1.79;;;1.93;;
14890;SDS011;7537;48.014;11.590;2023-04-16T06:08:45;1.22;;;1.21;;
14890;SDS011;7537;48.014;11.590;2023-04-16T06:14:13;1.65;;;1.78;;
14890;SDS011;7537;48.014;11.590;2023-04-16T06:19:40;1.30;;;1.44;;
14890;SDS011;7537;48.014;11.590;2023-04-16T06:25:08;1.09;;;1.23;;
14890;SDS011;7537;48.014;11.590;2023-04-16T06:30:36;1.53;;;1.07;;
14890;SDS011;7537;48.014;11.590;2023-04-16T06:36:04;0.62;;;0.72;;
14890;SDS011;7537;48.014;11.590;2023-04-16T06:41:35;0.49;;;0.55;;
14890;SDS011;7537;48.014;11.590;2023-04-16T06:47:02;0.70;;;0.72;;
14890;SDS011;7537;48.014;11.590;2023-04-16T06:52:30;0.99;;;1.01;;
14890;SDS011;7537;48.014;11.590;2023-04-16T06:58:00;0.45;;;0.53;;
14890;SDS011;7537;48.014;11.590;2023-04-16T07:03:28;0.39;;;0.41;;
14890;SDS011;7537;48.014;11.590;2023-04-16T07:08:55;3.89;;;0.37;;
14890;SDS011;7537;48.014;11.590;2023-04-16T07:14:23;0.59;;;0.62;;
14890;SDS011;7537;48.014;11.590;2023-04-16T07:19:51;0.70;;;0.58;;
14890;SDS011;7537;48.014;11.590;2023-04-16T07:25:18;0.93;;;0.65;;
14890;SDS011;7537;48.014;11.590;2023-04-16T07:30:46;0.21;;;0.26;;
14890;SDS011;7537;48.014;11.590;2023-04-16T07:36:13;0.54;;;0.61;;
14890;SDS011;7537;48.014;11.590;2023-04-16T07:41:53;0.20;;;0.24;;
14890;SDS011;7537;48.014;11.590;2023-04-16T07:47:21;0.58;;;0.66;;
14890;SDS011;7537;48.014;11.590;2023-04-16T07:52:49;0.26;;;0.26;;
14890;SDS011;7537;48.014;11.590;2023-04-16T07:58:19;0.31;;;0.33;;
14890;SDS011;7537;48.014;11.590;2023-04-16T08:03:47;0.97;;;0.66;;
14890;SDS011;7537;48.014;11.590;2023-04-16T08:09:14;0.26;;;0.31;;
14890;SDS011;7537;48.014;11.590;2023-04-16T08:14:44;0.26;;;0.30;;
14890;SDS011;7537;48.014;11.590;2023-04-16T08:20:12;5.69;;;1.11;;
14890;SDS011;7537;48.014;11.590;2023-04-16T08:25:39;0.56;;;0.60;;
14890;SDS011;7537;48.014;11.590;2023-04-16T08:31:06;0.36;;;0.39;;
14890;SDS011;7537;48.014;11.590;2023-04-16T08:36:34;0.24;;;0.26;;
14890;SDS011;7537;48.014;11.590;2023-04-16T08:42:03;0.28;;;0.31;;
14890;SDS011;7537;48.014;11.590;2023-04-16T08:47:31;0.28;;;0.32;;
14890;SDS011;7537;48.014;11.590;2023-04-16T08:53:02;5.21;;;3.18;;
14890;SDS011;7537;48.014;11.590;2023-04-16T08:58:33;0.76;;;0.99;;
14890;SDS011;7537;48.014;11.590;2023-04-16T09:04:03;0.36;;;0.41;;
14890;SDS011;7537;48.014;11.590;2023-04-16T09:09:32;0.18;;;0.22;;
14890;SDS011;7537;48.014;11.590;2023-04-16T09:15:03;0.51;;;0.49;;
14890;SDS011;7537;48.014;11.590;2023-04-16T09:20:32;0.21;;;0.17;;
14890;SDS011;7537;48.014;11.590;2023-04-16T09:25:59;0.31;;;0.34;;
14890;SDS011;7537;48.014;11.590;2023-04-16T09:31:28;0.27;;;0.31;;
14890;SDS011;7537;48.014;11.590;2023-04-16T09:36:55;0.41;;;0.45;;
14890;SDS011;7537;48.014;11.590;2023-04-16T09:42:39;0.82;;;0.25;;
14890;SDS011;7537;48.014;11.590;2023-04-16T09:48:07;0.24;;;0.24;;
14890;SDS011;7537;48.014;11.590;2023-04-16T09:53:34;0.13;;;0.14;;
14890;SDS011;7537;48.014;11.590;2023-04-16T09:59:16;0.36;;;0.41;;
14890;SDS011;7537;48.014;11.590;2023-04-16T10:04:47;0.09;;;0.12;;
14890;SDS011;7537;48.014;11.590;2023-04-16T10:10:15;0.24;;;0.28;;
14890;SDS011;7537;48.014;11.590;2023-04-16T10:15:43;0.21;;;0.24;;
14890;SDS011;7537;48.014;11.590;2023-04-16T10:21:11;0.43;;;0.36;;
14890;SDS011;7537;48.014;11.590;2023-04-16T10:26:39;0.17;;;0.20;;
14890;SDS011;7537;48.014;11.590;2023-04-16T10:32:07;0.18;;;0.19;;
14890;SDS011;7537;48.014;11.590;2023-04-16T10:37:35;0.25;;;0.29;;
14890;SDS011;7537;48.014;11.590;2023-04-16T10:43:03;0.27;;;0.30;;
14890;SDS011;7537;48.014;11.590;2023-04-16T10:48:34;0.26;;;0.28;;
14890;SDS011;7537;48.014;11.590;2023-04-16T10:54:03;0.40;;;0.26;;
14890;SDS011;7537;48.014;11.590;2023-04-16T10:59:34;0.35;;;0.38;;
14890;SDS011;7537;48.014;11.590;2023-04-16T11:05:03;0.34;;;0.39;;
14890;SDS011;7537;48.014;11.590;2023-04-16T11:10:30;0.13;;;0.15;;
14890;SDS011;7537;48.014;11.590;2023-04-16T11:16:05;0.41;;;0.46;;
14890;SDS011;7537;48.014;11.590;2023-04-16T11:21:33;0.08;;;0.09;;
14890;SDS011;7537;48.014;11.590;2023-04-16T11:27:00;0.41;;;0.46;;
14890;SDS011;7537;48.014;11.590;2023-04-16T11:32:30;0.43;;;0.32;;
14890;SDS011;7537;48.014;11.590;2023-04-16T11:37:58;0.35;;;0.38;;
14890;SDS011;7537;48.014;11.590;2023-04-16T11:43:26;0.12;;;0.15;;
14890;SDS011;7537;48.014;11.590;2023-04-16T11:48:54;0.16;;;0.18;;
14890;SDS011;7537;48.014;11.590;2023-04-16T11:54:22;0.44;;;0.44;;
14890;SDS011;7537;48.014;11.590;2023-04-16T11:59:54;0.23;;;0.25;;
14890;SDS011;7537;48.014;11.590;2023-04-16T12:05:25;0.24;;;0.27;;
14890;SDS011;7537;48.014;11.590;2023-04-16T12:10:54;0.39;;;0.44;;
14890;SDS011;7537;48.014;11.590;2023-04-16T12:16:21;0.31;;;0.28;;
14890;SDS011;7537;48.014;11.590;2023-04-16T12:21:51;0.39;;;0.45;;
14890;SDS011;7537;48.014;11.590;2023-04-16T12:27:19;0.46;;;0.51;;
14890;SDS011;7537;48.014;11.590;2023-04-16T12:32:47;0.36;;;0.43;;
14890;SDS011;7537;48.014;11.590;2023-04-16T12:38:16;0.89;;;0.39;;
14890;SDS011;7537;48.014;11.590;2023-04-16T12:43:44;0.16;;;0.18;;
14890;SDS011;7537;48.014;11.590;2023-04-16T12:49:11;0.33;;;0.34;;
14890;SDS011;7537;48.014;11.590;2023-04-16T12:54:39;0.08;;;0.10;;
14890;SDS011;7537;48.014;11.590;2023-04-16T13:00:10;0.29;;;0.18;;
14890;SDS011;7537;48.014;11.590;2023-04-16T13:05:38;0.43;;;0.48;;
14890;SDS011;7537;48.014;11.590;2023-04-16T13:11:06;0.35;;;0.39;;
14890;SDS011;7537;48.014;11.590;2023-04-16T13:16:33;0.46;;;0.38;;
14890;SDS011;7537;48.014;11.590;2023-04-16T13:22:01;0.22;;;0.24;;
14890;SDS011;7537;48.014;11.590;2023-04-16T13:27:35;0.46;;;0.51;;
14890;SDS011;7537;48.014;11.590;2023-04-16T13:33:02;0.18;;;0.19;;
14890;SDS011;7537;48.014;11.590;2023-04-16T13:38:30;0.68;;;0.74;;
14890;SDS011;7537;48.014;11.590;2023-04-16T13:43:57;0.18;;;0.22;;
14890;SDS011;7537;48.014;11.590;2023-04-16T13:49:25;0.43;;;0.48;;
14890;SDS011;7537;48.014;11.590;2023-04-16T13:54:52;0.22;;;0.26;;
14890;SDS011;7537;48.014;11.590;2023-04-16T14:00:25;1.00;;;0.33;;
14890;SDS011;7537;48.014;11.590;2023-04-16T14:05:53;0.82;;;0.89;;
14890;SDS011;7537;48.014;11.590;2023-04-16T14:11:20;0.24;;;0.29;;
14890;SDS011;7537;48.014;11.590;2023-04-16T14:16:47;0.52;;;0.57;;
14890;SDS011;7537;48.014;11.590;2023-04-16T14:22:15;0.39;;;0.44;;
14890;SDS011;7537;48.014;11.590;2023-04-16T14:27:42;0.29;;;0.33;;
14890;SDS011;7537;48.014;11.590;2023-04-16T14:33:10;0.32;;;0.37;;
14890;SDS011;7537;48.014;11.590;2023-04-16T14:38:39;0.18;;;0.14;;
14890;SDS011;7537;48.014;11.590;2023-04-16T14:44:07;0.26;;;0.25;;
14890;SDS011;7537;48.014;11.590;2023-04-16T14:49:34;0.32;;;0.34;;
14890;SDS011;7537;48.014;11.590;2023-04-16T14:55:02;1.14;;;1.01;;
14890;SDS011;7537;48.014;11.590;2023-04-16T15:00:48;0.34;;;0.36;;
14890;SDS011;7537;48.014;11.590;2023-04-16T15:06:16;0.17;;;0.19;;
14890;SDS011;7537;48.014;11.590;2023-04-16T15:11:43;0.47;;;0.46;;
14890;SDS011;7537;48.014;11.590;2023-04-16T15:17:11;0.65;;;0.72;;
14890;SDS011;7537;48.014;11.590;2023-04-16T15:22:40;0.73;;;0.79;;
14890;SDS011;7537;48.014;11.590;2023-04-16T15:28:07;1.59;;;0.35;;
14890;SDS011;7537;48.014;11.590;2023-04-16T15:33:35;0.45;;;0.49;;
14890;SDS011;7537;48.014;11.590;2023-04-16T15:39:02;0.28;;;0.31;;
14890;SDS011;7537;48.014;11.590;2023-04-16T15:44:30;0.36;;;0.39;;
14890;SDS011;7537;48.014;11.590;2023-04-16T15:49:57;1.36;;;0.56;;
14890;SDS011;7537;48.014;11.590;2023-04-16T15:55:25;0.71;;;0.73;;
14890;SDS011;7537;48.014;11.590;2023-04-16T16:00:56;0.87;;;0.99;;
14890;SDS011;7537;48.014;11.590;2023-04-16T16:06:23;0.91;;;0.41;;
14890;SDS011;7537;48.014;11.590;2023-04-16T16:11:51;0.36;;;0.26;;
14890;SDS011;7537;48.014;11.590;2023-04-16T16:17:18;0.18;;;0.20;;
14890;SDS011;7537;48.014;11.590;2023-04-16T16:22:46;2.74;;;0.46;;
14890;SDS011;7537;48.014;11.590;2023-04-16T16:28:13;1.01;;;0.96;;
14890;SDS011;7537;48.014;11.590;2023-04-16T16:33:40;0.56;;;0.64;;
14890;SDS011;7537;48.014;11.590;2023-04-16T16:39:12;0.38;;;0.44;;
14890;SDS011;7537;48.014;11.590;2023-04-16T16:44:39;0.31;;;0.34;;
14890;SDS011;7537;48.014;11.590;2023-04-16T16:50:08;0.38;;;0.44;;
14890;SDS011;7537;48.014;11.590;2023-04-16T16:55:36;0.51;;;0.56;;
14890;SDS011;7537;48.014;11.590;2023-04-16T17:01:07;0.83;;;0.26;;
14890;SDS011;7537;48.014;11.590;2023-04-16T17:06:35;0.32;;;0.35;;
14890;SDS011;7537;48.014;11.590;2023-04-16T17:12:03;0.20;;;0.24;;
14890;SDS011;7537;48.014;11.590;2023-04-16T17:17:33;0.26;;;0.28;;
14890;SDS011;7537;48.014;11.590;2023-04-16T17:23:00;4.03;;;0.44;;
14890;SDS011;7537;48.014;11.590;2023-04-16T17:28:28;0.20;;;0.23;;
14890;SDS011;7537;48.014;11.590;2023-04-16T17:33:55;0.33;;;0.39;;
14890;SDS011;7537;48.014;11.590;2023-04-16T17:39:22;0.36;;;0.39;;
14890;SDS011;7537;48.014;11.590;2023-04-16T17:44:50;0.64;;;0.48;;
14890;SDS011;7537;48.014;11.590;2023-04-16T17:50:17;0.55;;;0.58;;
14890;SDS011;7537;48.014;11.590;2023-04-16T17:56:01;0.46;;;0.51;;
14890;SDS011;7537;48.014;11.590;2023-04-16T18:01:32;0.57;;;0.62;;
14890;SDS011;7537;48.014;11.590;2023-04-16T18:06:59;0.64;;;0.70;;
14890;SDS011;7537;48.014;11.590;2023-04-16T18:12:27;0.58;;;0.66;;
14890;SDS011;7537;48.014;11.590;2023-04-16T18:17:56;0.98;;;0.74;;
14890;SDS011;7537;48.014;11.590;2023-04-16T18:23:25;2.54;;;0.78;;
14890;SDS011;7537;48.014;11.590;2023-04-16T18:28:53;0.53;;;0.56;;
14890;SDS011;7537;48.014;11.590;2023-04-16T18:34:20;0.54;;;0.51;;
14890;SDS011;7537;48.014;11.590;2023-04-16T18:39:48;0.29;;;0.33;;
14890;SDS011;7537;48.014;11.590;2023-04-16T18:45:15;0.43;;;0.49;;
14890;SDS011;7537;48.014;11.590;2023-04-16T18:50:49;0.39;;;0.43;;
14890;SDS011;7537;48.014;11.590;2023-04-16T18:56:16;0.78;;;0.86;;
14890;SDS011;7537;48.014;11.590;2023-04-16T19:01:47;0.57;;;0.65;;
14890;SDS011;7537;48.014;11.590;2023-04-16T19:07:15;0.57;;;0.62;;
14890;SDS011;7537;48.014;11.590;2023-04-16T19:12:42;0.68;;;0.76;;
14890;SDS011;7537;48.014;11.590;2023-04-16T19:18:12;0.66;;;0.73;;
14890;SDS011;7537;48.014;11.590;2023-04-16T19:23:40;0.64;;;0.74;;
14890;SDS011;7537;48.014;11.590;2023-04-16T19:29:08;0.48;;;0.54;;
14890;SDS011;7537;48.014;11.590;2023-04-16T19:34:36;0.66;;;0.48;;
14890;SDS011;7537;48.014;11.590;2023-04-16T19:40:04;0.41;;;0.44;;
14890;SDS011;7537;48.014;11.590;2023-04-16T19:45:31;0.41;;;0.43;;
14890;SDS011;7537;48.014;11.590;2023-04-16T19:51:00;0.65;;;0.62;;
14890;SDS011;7537;48.014;11.590;2023-04-16T19:56:29;0.29;;;0.34;;
14890;SDS011;7537;48.014;11.590;2023-04-16T20:02:00;0.36;;;0.36;;
14890;SDS011;7537;48.014;11.590;2023-04-16T20:07:27;0.28;;;0.32;;
14890;SDS011;7537;48.014;11.590;2023-04-16T20:12:55;0.36;;;0.41;;
14890;SDS011;7537;48.014;11.590;2023-04-16T20:18:22;0.14;;;0.16;;
14890;SDS011;7537;48.014;11.590;2023-04-16T20:23:50;0.39;;;0.44;;
14890;SDS011;7537;48.014;11.590;2023-04-16T20:29:17;0.61;;;0.69;;
14890;SDS011;7537;48.014;11.590;2023-04-16T20:34:45;0.76;;;0.86;;
14890;SDS011;7537;48.014;11.590;2023-04-16T20:40:12;0.46;;;0.53;;
14890;SDS011;7537;48.014;11.590;2023-04-16T20:45:40;0.62;;;0.66;;
14890;SDS011;7537;48.014;11.590;2023-04-16T20:51:07;0.70;;;0.78;;
14890;SDS011;7537;48.014;11.590;2023-04-16T20:56:35;0.22;;;0.27;;
14890;SDS011;7537;48.014;11.590;2023-04-16T21:02:06;0.42;;;0.47;;
14890;SDS011;7537;48.014;11.590;2023-04-16T21:07:34;0.43;;;0.48;;
14890;SDS011;7537;48.014;11.590;2023-04-16T21:13:01;0.52;;;0.51;;
14890;SDS011;7537;48.014;11.590;2023-04-16T21:18:29;0.40;;;0.44;;
14890;SDS011;7537;48.014;11.590;2023-04-16T21:23:56;1.18;;;0.69;;
14890;SDS011;7537;48.014;11.590;2023-04-16T21:29:24;0.58;;;0.49;;
14890;SDS011;7537;48.014;11.590;2023-04-16T21:34:51;0.66;;;0.70;;
14890;SDS011;7537;48.014;11.590;2023-04-16T21:40:19;0.56;;;0.61;;
14890;SDS011;7537;48.014;11.590;2023-04-16T21:45:46;0.35;;;0.39;;
14890;SDS011;7537;48.014;11.590;2023-04-16T21:51:14;0.47;;;0.52;;
14890;SDS011;7537;48.014;11.590;2023-04-16T21:56:41;0.51;;;0.54;;
14890;SDS011;7537;48.014;11.590;2023-04-16T22:02:12;0.43;;;0.48;;
14890;SDS011;7537;48.014;11.590;2023-04-16T22:07:39;0.68;;;0.63;;
14890;SDS011;7537;48.014;11.590;2023-04-16T22:13:07;0.61;;;0.69;;
14890;SDS011;7537;48.014;11.590;2023-04-16T22:18:35;0.49;;;0.53;;
14890;SDS011;7537;48.014;11.590;2023-04-16T22:24:03;0.35;;;0.37;;
14890;SDS011;7537;48.014;11.590;2023-04-16T22:29:31;0.33;;;0.36;;
14890;SDS011;7537;48.014;11.590;2023-04-16T22:35:00;0.41;;;0.45;;
14890;SDS011;7537;48.014;11.590;2023-04-16T22:40:27;0.44;;;0.51;;
14890;SDS011;7537;48.014;11.590;2023-04-16T22:46:02;0.59;;;0.66;;
14890;SDS011;7537;48.014;11.590;2023-04-16T22:51:32;0.48;;;0.54;;
14890;SDS011;7537;48.014;11.590;2023-04-16T22:57:00;0.65;;;0.72;;
14890;SDS011;7537;48.014;11.590;2023-04-16T23:02:31;0.78;;;0.86;;
14890;SDS011;7537;48.014;11.590;2023-04-16T23:07:58;0.64;;;0.71;;
14890;SDS011;7537;48.014;11.590;2023-04-16T23:13:26;0.46;;;0.41;;
14890;SDS011;7537;48.014;11.590;2023-04-16T23:18:53;0.61;;;0.56;;
14890;SDS011;7537;48.014;11.590;2023-04-16T23:24:21;0.54;;;0.30;;
14890;SDS011;7537;48.014;11.590;2023-04-16T23:29:48;0.59;;;0.29;;
14890;SDS011;7537;48.014;11.590;2023-04-16T23:35:16;0.24;;;0.26;;
14890;SDS011;7537;48.014;11.590;2023-04-16T23:40:43;0.35;;;0.38;;
14890;SDS011;7537;48.014;11.590;2023-04-16T23:46:11;0.25;;;0.28;;
14890;SDS011;7537;48.014;11.590;2023-04-16T23:51:38;0.57;;;0.65;;
14890;SDS011;7537;48.014;11.590;2023-04-16T23:57:05;0.31;;;0.36;;
